sensor_id;sensor_type;location;lat;lon;timestamp;pressure;altitude;pressure_sealevel;temperature;humidity
43217;BME280;60511;42.686;23.300;2023-05-08T00:01:29;94872.41;;;23.31;31.67
43217;BME280;60511;42.686;23.300;2023-05-08T00:03:30;94851.38;;;23.08;31.53
43217;BME280;60511;42.686;23.300;2023-05-08T00:05:30;94865.53;;;23.17;31.24
43217;BME280;60511;42.686;23.300;2023-05-08T00:07:31;94881.22;;;23.27;31.23
43217;BME280;60511;42.686;23.300;2023-05-08T00:09:31;94876.59;;;23.28;31.37
43217;BME280;60511;42.686;23.300;2023-05-08T00:11:31;94881.22;;;23.27;31.41
43217;BME280;60511;42.686;23.300;2023-05-08T00:13:32;94876.94;;;23.26;31.54
43217;BME280;60511;42.686;23.300;2023-05-08T00:15:32;94832.28;;;23.01;31.65
43217;BME280;60511;42.686;23.300;2023-05-08T00:17:34;94884.38;;;23.30;31.28
43217;BME280;60511;42.686;23.300;2023-05-08T00:19:35;94859.31;;;23.17;31.31
43217;BME280;60511;42.686;23.300;2023-05-08T00:21:35;94877.28;;;23.25;31.51
43217;BME280;60511;42.686;23.300;2023-05-08T00:23:36;94871.81;;;23.21;31.37
43217;BME280;60511;42.686;23.300;2023-05-08T00:25:36;94827.25;;;22.87;31.25
43217;BME280;60511;42.686;23.300;2023-05-08T00:27:36;94877.66;;;23.23;31.47
43217;BME280;60511;42.686;23.300;2023-05-08T00:29:37;94870.38;;;23.12;31.33
43217;BME280;60511;42.686;23.300;2023-05-08T00:31:39;94868.47;;;23.12;31.50
43217;BME280;60511;42.686;23.300;2023-05-08T00:33:39;94891.66;;;23.29;31.15
43217;BME280;60511;42.686;23.300;2023-05-08T00:35:40;94888.88;;;23.25;31.58
43217;BME280;60511;42.686;23.300;2023-05-08T00:37:42;94887.75;;;23.26;31.51
43217;BME280;60511;42.686;23.300;2023-05-08T00:39:42;94889.34;;;23.27;31.52
43217;BME280;60511;42.686;23.300;2023-05-08T00:41:43;94878.22;;;23.17;31.32
43217;BME280;60511;42.686;23.300;2023-05-08T00:43:43;94863.56;;;23.02;31.46
43217;BME280;60511;42.686;23.300;2023-05-08T00:45:44;94898.53;;;23.26;31.42
43217;BME280;60511;42.686;23.300;2023-05-08T00:47:44;94886.63;;;23.27;31.29
43217;BME280;60511;42.686;23.300;2023-05-08T00:49:45;94893.47;;;23.25;31.46
43217;BME280;60511;42.686;23.300;2023-05-08T00:51:46;94891.22;;;23.27;31.34
43217;BME280;60511;42.686;23.300;2023-05-08T00:53:48;94868.78;;;23.11;31.28
43217;BME280;60511;42.686;23.300;2023-05-08T00:55:50;94895.50;;;23.28;31.16
43217;BME280;60511;42.686;23.300;2023-05-08T00:57:51;94872.19;;;23.08;31.63
43217;BME280;60511;42.686;23.300;2023-05-08T00:59:51;94894.53;;;23.20;31.52
43217;BME280;60511;42.686;23.300;2023-05-08T01:01:53;94875.56;;;23.04;31.51
43217;BME280;60511;42.686;23.300;2023-05-08T01:03:54;94848.16;;;22.90;31.36
43217;BME280;60511;42.686;23.300;2023-05-08T01:05:54;94899.31;;;23.27;31.31
43217;BME280;60511;42.686;23.300;2023-05-08T01:07:55;94878.59;;;23.15;31.20
43217;BME280;60511;42.686;23.300;2023-05-08T01:09:56;94901.59;;;23.25;31.31
43217;BME280;60511;42.686;23.300;2023-05-08T01:12:23;94901.25;;;23.26;31.59
43217;BME280;60511;42.686;23.300;2023-05-08T01:16:44;94879.97;;;23.09;31.49
43217;BME280;60511;42.686;23.300;2023-05-08T01:19:00;94905.09;;;23.25;31.42
43217;BME280;60511;42.686;23.300;2023-05-08T01:23:52;94910.84;;;23.24;31.33
43217;BME280;60511;42.686;23.300;2023-05-08T01:33:19;94903.06;;;23.22;31.53
43217;BME280;60511;42.686;23.300;2023-05-08T01:35:31;94861.16;;;23.00;31.41
43217;BME280;60511;42.686;23.300;2023-05-08T01:38:02;94891.81;;;23.20;31.65
43217;BME280;60511;42.686;23.300;2023-05-08T01:42:31;94883.38;;;23.22;31.33
43217;BME280;60511;42.686;23.300;2023-05-08T01:44:40;94890.34;;;23.23;31.50
43217;BME280;60511;42.686;23.300;2023-05-08T01:46:47;94873.09;;;23.12;31.42
43217;BME280;60511;42.686;23.300;2023-05-08T01:48:55;94882.84;;;23.16;31.28
43217;BME280;60511;42.686;23.300;2023-05-08T01:51:04;94895.31;;;23.21;31.33
43217;BME280;60511;42.686;23.300;2023-05-08T01:53:18;94892.25;;;23.22;31.19
43217;BME280;60511;42.686;23.300;2023-05-08T01:55:25;94892.25;;;23.22;31.37
43217;BME280;60511;42.686;23.300;2023-05-08T01:57:28;94865.22;;;23.06;31.57
43217;BME280;60511;42.686;23.300;2023-05-08T01:59:32;94880.84;;;23.13;31.51
43217;BME280;60511;42.686;23.300;2023-05-08T02:01:34;94889.91;;;23.21;31.53
43217;BME280;60511;42.686;23.300;2023-05-08T02:03:36;94854.88;;;22.96;31.43
43217;BME280;60511;42.686;23.300;2023-05-08T02:05:40;94880.84;;;23.13;31.71
43217;BME280;60511;42.686;23.300;2023-05-08T02:07:43;94882.84;;;23.16;31.15
43217;BME280;60511;42.686;23.300;2023-05-08T02:09:46;94889.13;;;23.20;31.21
43217;BME280;60511;42.686;23.300;2023-05-08T02:11:48;94856.34;;;22.94;31.43
43217;BME280;60511;42.686;23.300;2023-05-08T02:13:50;94864.34;;;23.02;31.23
43217;BME280;60511;42.686;23.300;2023-05-08T02:15:53;94888.00;;;23.21;31.55
43217;BME280;60511;42.686;23.300;2023-05-08T02:17:56;94893.03;;;23.23;31.50
43217;BME280;60511;42.686;23.300;2023-05-08T02:19:59;94865.59;;;23.05;31.36
43217;BME280;60511;42.686;23.300;2023-05-08T02:22:01;94850.97;;;22.94;31.44
43217;BME280;60511;42.686;23.300;2023-05-08T02:24:03;94891.50;;;23.22;31.12
43217;BME280;60511;42.686;23.300;2023-05-08T02:26:04;94891.81;;;23.20;31.21
43217;BME280;60511;42.686;23.300;2023-05-08T02:28:05;94894.19;;;23.22;31.31
43217;BME280;60511;42.686;23.300;2023-05-08T02:30:07;94883.19;;;23.15;31.21
43217;BME280;60511;42.686;23.300;2023-05-08T02:32:09;94852.88;;;22.93;31.36
43217;BME280;60511;42.686;23.300;2023-05-08T02:34:10;94880.63;;;23.06;31.53
43217;BME280;60511;42.686;23.300;2023-05-08T02:36:14;94898.81;;;23.21;31.48
43217;BME280;60511;42.686;23.300;2023-05-08T02:38:18;94890.16;;;23.16;31.27
43217;BME280;60511;42.686;23.300;2023-05-08T02:40:21;94873.25;;;23.03;31.30
43217;BME280;60511;42.686;23.300;2023-05-08T02:42:22;94876.00;;;23.06;31.40
43217;BME280;60511;42.686;23.300;2023-05-08T02:44:22;94864.13;;;22.95;31.54
43217;BME280;60511;42.686;23.300;2023-05-08T02:48:37;94890.75;;;23.09;31.35
43217;BME280;60511;42.686;23.300;2023-05-08T02:50:44;94909.06;;;23.16;31.41
43217;BME280;60511;42.686;23.300;2023-05-08T02:53:01;94901.75;;;23.16;31.34
43217;BME280;60511;42.686;23.300;2023-05-08T02:55:31;94903.31;;;23.17;31.28
43217;BME280;60511;42.686;23.300;2023-05-08T02:57:46;94897.47;;;23.15;31.22
43217;BME280;60511;42.686;23.300;2023-05-08T03:00:04;94907.91;;;23.17;31.28
43217;BME280;60511;42.686;23.300;2023-05-08T03:02:21;94902.44;;;23.13;31.20
43217;BME280;60511;42.686;23.300;2023-05-08T03:04:30;94909.41;;;23.14;31.48
43217;BME280;60511;42.686;23.300;2023-05-08T03:06:42;94902.44;;;23.13;31.48
43217;BME280;60511;42.686;23.300;2023-05-08T03:08:45;94904.69;;;23.11;31.31
43217;BME280;60511;42.686;23.300;2023-05-08T03:10:48;94900.84;;;23.12;31.27
43217;BME280;60511;42.686;23.300;2023-05-08T03:12:52;94893.78;;;23.08;31.17
43217;BME280;60511;42.686;23.300;2023-05-08T03:14:59;94894.91;;;23.06;31.15
43217;BME280;60511;42.686;23.300;2023-05-08T03:17:05;94894.38;;;23.01;31.50
43217;BME280;60511;42.686;23.300;2023-05-08T03:19:15;94908.97;;;23.12;31.48
43217;BME280;60511;42.686;23.300;2023-05-08T03:21:19;94910.88;;;23.12;31.33
43217;BME280;60511;42.686;23.300;2023-05-08T03:23:22;94870.00;;;22.85;31.34
43217;BME280;60511;42.686;23.300;2023-05-08T03:25:24;94833.41;;;22.59;31.50
43217;BME280;60511;42.686;23.300;2023-05-08T03:27:28;94896.84;;;23.06;31.20
43217;BME280;60511;42.686;23.300;2023-05-08T03:29:29;94886.06;;;22.94;31.23
43217;BME280;60511;42.686;23.300;2023-05-08T03:31:30;94871.56;;;22.86;31.29
43217;BME280;60511;42.686;23.300;2023-05-08T03:33:32;94897.16;;;23.04;31.60
43217;BME280;60511;42.686;23.300;2023-05-08T03:35:37;94879.53;;;22.95;31.22
43217;BME280;60511;42.686;23.300;2023-05-08T03:37:37;94920.91;;;23.11;31.62
43217;BME280;60511;42.686;23.300;2023-05-08T03:39:38;94915.06;;;23.09;31.55
43217;BME280;60511;42.686;23.300;2023-05-08T03:41:38;94863.28;;;22.79;31.35
43217;BME280;60511;42.686;23.300;2023-05-08T03:43:40;94890.78;;;22.97;31.60
43217;BME280;60511;42.686;23.300;2023-05-08T03:45:40;94910.53;;;23.13;31.47
43217;BME280;60511;42.686;23.300;2023-05-08T03:47:41;94897.16;;;23.04;31.53
43217;BME280;60511;42.686;23.300;2023-05-08T03:49:44;94822.09;;;22.54;31.38
43217;BME280;60511;42.686;23.300;2023-05-08T03:51:45;94885.59;;;22.92;31.32
43217;BME280;60511;42.686;23.300;2023-05-08T03:53:46;94886.06;;;22.94;31.31
43217;BME280;60511;42.686;23.300;2023-05-08T03:55:46;94881.34;;;22.91;31.25
43217;BME280;60511;42.686;23.300;2023-05-08T03:57:50;94931.00;;;23.14;31.50
43217;BME280;60511;42.686;23.300;2023-05-08T04:00:05;94882.72;;;22.84;31.24
43217;BME280;60511;42.686;23.300;2023-05-08T04:06:57;94927.53;;;23.14;31.22
43217;BME280;60511;42.686;23.300;2023-05-08T04:09:48;94928.31;;;23.14;31.21
43217;BME280;60511;42.686;23.300;2023-05-08T04:11:30;94911.47;;;23.05;31.21
43217;BME280;60511;42.686;23.300;2023-05-08T04:13:36;94919.91;;;23.03;31.52
43217;BME280;60511;42.686;23.300;2023-05-08T04:15:51;94931.09;;;23.18;31.22
43217;BME280;60511;42.686;23.300;2023-05-08T04:18:03;94939.53;;;23.16;31.41
43217;BME280;60511;42.686;23.300;2023-05-08T04:20:06;94927.75;;;23.09;31.33
43217;BME280;60511;42.686;23.300;2023-05-08T04:22:09;94938.00;;;23.15;31.37
43217;BME280;60511;42.686;23.300;2023-05-08T04:24:12;94940.31;;;23.17;31.39
43217;BME280;60511;42.686;23.300;2023-05-08T04:26:15;94936.84;;;23.16;31.42
43217;BME280;60511;42.686;23.300;2023-05-08T04:28:17;94942.25;;;23.16;31.68
43217;BME280;60511;42.686;23.300;2023-05-08T04:30:18;94935.97;;;23.12;31.54
43217;BME280;60511;42.686;23.300;2023-05-08T04:32:20;94863.75;;;22.69;31.40
43217;BME280;60511;42.686;23.300;2023-05-08T04:34:21;94936.84;;;23.16;31.21
43217;BME280;60511;42.686;23.300;2023-05-08T04:36:22;94933.03;;;23.17;31.15
43217;BME280;60511;42.686;23.300;2023-05-08T04:38:22;94924.72;;;23.10;31.56
43217;BME280;60511;42.686;23.300;2023-05-08T04:40:23;94937.28;;;23.18;31.26
43217;BME280;60511;42.686;23.300;2023-05-08T04:42:24;94912.69;;;23.08;31.21
43217;BME280;60511;42.686;23.300;2023-05-08T04:44:27;94933.81;;;23.18;31.49
43217;BME280;60511;42.686;23.300;2023-05-08T04:46:28;94904.03;;;23.02;31.21
43217;BME280;60511;42.686;23.300;2023-05-08T04:48:29;94931.09;;;23.18;31.47
43217;BME280;60511;42.686;23.300;2023-05-08T04:50:32;94891.78;;;22.92;31.49
43217;BME280;60511;42.686;23.300;2023-05-08T04:52:32;94914.25;;;23.09;31.51
43217;BME280;60511;42.686;23.300;2023-05-08T04:54:33;94928.31;;;23.14;31.49
43217;BME280;60511;42.686;23.300;2023-05-08T04:56:33;94924.38;;;23.12;31.70
43217;BME280;60511;42.686;23.300;2023-05-08T04:58:34;94859.25;;;22.73;31.32
43217;BME280;60511;42.686;23.300;2023-05-08T05:00:34;94917.84;;;23.13;31.44
43217;BME280;60511;42.686;23.300;2023-05-08T05:02:35;94917.50;;;23.14;31.53
43217;BME280;60511;42.686;23.300;2023-05-08T05:04:35;94911.56;;;23.09;31.58
43217;BME280;60511;42.686;23.300;2023-05-08T05:06:36;94915.59;;;23.15;31.49
43217;BME280;60511;42.686;23.300;2023-05-08T05:08:36;94905.81;;;23.10;31.54
43217;BME280;60511;42.686;23.300;2023-05-08T05:10:37;94919.53;;;23.17;31.47
43217;BME280;60511;42.686;23.300;2023-05-08T05:12:38;94913.75;;;23.19;31.20
43217;BME280;60511;42.686;23.300;2023-05-08T05:14:39;94915.69;;;23.18;31.49
43217;BME280;60511;42.686;23.300;2023-05-08T05:16:39;94858.44;;;22.84;31.52
43217;BME280;60511;42.686;23.300;2023-05-08T05:18:39;94906.59;;;23.11;31.31
43217;BME280;60511;42.686;23.300;2023-05-08T05:20:40;94892.91;;;23.03;31.40
43217;BME280;60511;42.686;23.300;2023-05-08T05:22:40;94900.84;;;23.12;31.36
43217;BME280;60511;42.686;23.300;2023-05-08T05:24:40;94896.59;;;23.11;31.34
43217;BME280;60511;42.686;23.300;2023-05-08T05:26:41;94910.19;;;23.15;31.60
43217;BME280;60511;42.686;23.300;2023-05-08T05:28:41;94880.31;;;22.95;31.44
43217;BME280;60511;42.686;23.300;2023-05-08T05:30:46;94917.28;;;23.19;31.33
43217;BME280;60511;42.686;23.300;2023-05-08T05:32:46;94908.81;;;23.21;31.26
43217;BME280;60511;42.686;23.300;2023-05-08T05:34:46;94891.31;;;23.02;31.24
43217;BME280;60511;42.686;23.300;2023-05-08T05:36:47;94877.34;;;23.00;31.25
43217;BME280;60511;42.686;23.300;2023-05-08T05:38:47;94908.28;;;23.15;31.13
43217;BME280;60511;42.686;23.300;2023-05-08T05:40:48;94895.16;;;23.01;31.40
43217;BME280;60511;42.686;23.300;2023-05-08T05:42:49;94908.19;;;23.12;31.45
43217;BME280;60511;42.686;23.300;2023-05-08T05:44:50;94886.50;;;22.96;31.40
43217;BME280;60511;42.686;23.300;2023-05-08T05:46:50;94915.69;;;23.18;31.10
43217;BME280;60511;42.686;23.300;2023-05-08T05:48:50;94906.38;;;23.16;31.52
43217;BME280;60511;42.686;23.300;2023-05-08T05:50:51;94918.94;;;23.24;31.37
43217;BME280;60511;42.686;23.300;2023-05-08T05:52:51;94914.56;;;23.19;31.28
43217;BME280;60511;42.686;23.300;2023-05-08T05:54:51;94897.81;;;23.14;31.50
43217;BME280;60511;42.686;23.300;2023-05-08T05:56:52;94916.56;;;23.22;31.19
43217;BME280;60511;42.686;23.300;2023-05-08T05:58:52;94906.91;;;23.21;31.21
43217;BME280;60511;42.686;23.300;2023-05-08T06:00:53;94859.84;;;22.94;31.42
43217;BME280;60511;42.686;23.300;2023-05-08T06:02:53;94890.84;;;23.13;31.27
43217;BME280;60511;42.686;23.300;2023-05-08T06:04:54;94881.63;;;23.14;31.43
43217;BME280;60511;42.686;23.300;2023-05-08T06:06:54;94901.59;;;23.25;31.38
43217;BME280;60511;42.686;23.300;2023-05-08T06:08:55;94844.94;;;22.84;31.56
43217;BME280;60511;42.686;23.300;2023-05-08T06:10:56;94895.41;;;23.24;31.31
43217;BME280;60511;42.686;23.300;2023-05-08T06:12:56;94868.72;;;23.07;31.56
43217;BME280;60511;42.686;23.300;2023-05-08T06:14:56;94896.56;;;23.23;31.63
43217;BME280;60511;42.686;23.300;2023-05-08T06:16:57;94889.47;;;23.19;31.56
43217;BME280;60511;42.686;23.300;2023-05-08T06:18:57;94846.34;;;22.94;31.51
43217;BME280;60511;42.686;23.300;2023-05-08T06:20:58;94899.25;;;23.23;31.51
43217;BME280;60511;42.686;23.300;2023-05-08T06:22:59;94879.25;;;23.12;31.63
43217;BME280;60511;42.686;23.300;2023-05-08T06:24:59;94894.88;;;23.19;31.67
43217;BME280;60511;42.686;23.300;2023-05-08T06:26:59;94898.00;;;23.21;31.68
43217;BME280;60511;42.686;23.300;2023-05-08T06:29:01;94872.97;;;23.08;31.65
43217;BME280;60511;42.686;23.300;2023-05-08T06:31:01;94868.63;;;23.03;31.48
43217;BME280;60511;42.686;23.300;2023-05-08T06:33:02;94903.06;;;23.22;31.54
43217;BME280;60511;42.686;23.300;2023-05-08T06:35:03;94857.50;;;22.93;31.67
43217;BME280;60511;42.686;23.300;2023-05-08T06:37:03;94871.19;;;23.00;31.67
43217;BME280;60511;42.686;23.300;2023-05-08T06:39:04;94888.56;;;23.15;31.48
43217;BME280;60511;42.686;23.300;2023-05-08T06:41:05;94844.56;;;22.86;31.67
43217;BME280;60511;42.686;23.300;2023-05-08T06:43:05;94874.66;;;23.00;31.41
43217;BME280;60511;42.686;23.300;2023-05-08T06:45:07;94880.63;;;23.06;31.58
43217;BME280;60511;42.686;23.300;2023-05-08T06:47:07;94898.88;;;23.25;31.26
43217;BME280;60511;42.686;23.300;2023-05-08T06:49:08;94885.88;;;23.15;31.53
43217;BME280;60511;42.686;23.300;2023-05-08T06:51:08;94900.47;;;23.26;31.67
43217;BME280;60511;42.686;23.300;2023-05-08T06:53:08;94886.31;;;23.17;31.57
43217;BME280;60511;42.686;23.300;2023-05-08T06:55:09;94889.47;;;23.19;31.42
43217;BME280;60511;42.686;23.300;2023-05-08T06:57:10;94889.66;;;23.26;31.38
43217;BME280;60511;42.686;23.300;2023-05-08T06:59:13;94868.72;;;23.07;31.63
43217;BME280;60511;42.686;23.300;2023-05-08T07:01:14;94768.22;;;22.41;31.28
43217;BME280;60511;42.686;23.300;2023-05-08T07:03:14;94886.69;;;23.15;31.19
43217;BME280;60511;42.686;23.300;2023-05-08T07:05:15;94895.41;;;23.24;31.52
43217;BME280;60511;42.686;23.300;2023-05-08T07:07:16;94908.84;;;23.37;31.37
43217;BME280;60511;42.686;23.300;2023-05-08T07:09:17;94913.13;;;23.38;31.14
43217;BME280;60511;42.686;23.300;2023-05-08T07:11:17;94916.63;;;23.38;31.31
43217;BME280;60511;42.686;23.300;2023-05-08T07:13:17;94912.78;;;23.39;31.43
43217;BME280;60511;42.686;23.300;2023-05-08T07:15:20;94905.47;;;23.40;31.13
43217;BME280;60511;42.686;23.300;2023-05-08T07:17:21;94908.50;;;23.38;31.10
43217;BME280;60511;42.686;23.300;2023-05-08T07:19:22;94908.03;;;23.20;31.54
43217;BME280;60511;42.686;23.300;2023-05-08T07:21:22;94884.06;;;23.19;31.27
43217;BME280;60511;42.686;23.300;2023-05-08T07:23:22;94888.19;;;23.29;31.27
43217;BME280;60511;42.686;23.300;2023-05-08T07:25:23;94906.69;;;23.42;31.43
43217;BME280;60511;42.686;23.300;2023-05-08T07:27:23;94911.66;;;23.40;31.16
43217;BME280;60511;42.686;23.300;2023-05-08T07:29:25;94905.03;;;23.38;31.32
43217;BME280;60511;42.686;23.300;2023-05-08T07:31:25;94901.53;;;23.37;31.00
43217;BME280;60511;42.686;23.300;2023-05-08T07:33:26;94906.69;;;23.42;31.19
43217;BME280;60511;42.686;23.300;2023-05-08T07:35:26;94869.00;;;23.18;31.26
43217;BME280;60511;42.686;23.300;2023-05-08T07:37:28;94911.75;;;23.44;31.18
43217;BME280;60511;42.686;23.300;2023-05-08T07:39:28;94904.44;;;23.44;31.29
43217;BME280;60511;42.686;23.300;2023-05-08T07:41:29;94904.00;;;23.42;31.42
43217;BME280;60511;42.686;23.300;2023-05-08T07:43:30;94893.34;;;23.34;31.12
43217;BME280;60511;42.686;23.300;2023-05-08T07:45:30;94898.31;;;23.32;31.41
43217;BME280;60511;42.686;23.300;2023-05-08T07:47:31;94870.47;;;23.15;31.54
43217;BME280;60511;42.686;23.300;2023-05-08T07:49:31;94916.00;;;23.45;31.35
43217;BME280;60511;42.686;23.300;2023-05-08T07:51:32;94916.34;;;23.43;31.37
43217;BME280;60511;42.686;23.300;2023-05-08T07:53:32;94879.53;;;23.23;31.39
43217;BME280;60511;42.686;23.300;2023-05-08T07:55:32;94902.47;;;23.29;31.19
43217;BME280;60511;42.686;23.300;2023-05-08T07:57:40;94916.00;;;23.45;31.41
43217;BME280;60511;42.686;23.300;2023-05-08T07:59:40;94920.63;;;23.44;31.30
43217;BME280;60511;42.686;23.300;2023-05-08T08:01:41;94880.69;;;23.22;31.29
43217;BME280;60511;42.686;23.300;2023-05-08T08:03:46;94898.31;;;23.32;31.23
43217;BME280;60511;42.686;23.300;2023-05-08T08:05:46;94915.69;;;23.46;31.46
43217;BME280;60511;42.686;23.300;2023-05-08T08:07:47;94915.78;;;23.50;31.34
43217;BME280;60511;42.686;23.300;2023-05-08T08:09:47;94914.53;;;23.47;31.29
43217;BME280;60511;42.686;23.300;2023-05-08T08:11:48;94907.13;;;23.44;31.42
43217;BME280;60511;42.686;23.300;2023-05-08T08:13:48;94918.47;;;23.50;31.27
43217;BME280;60511;42.686;23.300;2023-05-08T08:15:48;94913.84;;;23.51;31.54
43217;BME280;60511;42.686;23.300;2023-05-08T08:17:49;94906.69;;;23.42;31.49
43217;BME280;60511;42.686;23.300;2023-05-08T08:19:49;94914.47;;;23.44;31.46
43217;BME280;60511;42.686;23.300;2023-05-08T08:21:50;94877.81;;;23.31;31.61
43217;BME280;60511;42.686;23.300;2023-05-08T08:23:50;94881.66;;;23.30;31.70
43217;BME280;60511;42.686;23.300;2023-05-08T08:25:50;94902.59;;;23.49;31.53
43217;BME280;60511;42.686;23.300;2023-05-08T08:27:52;94903.03;;;23.51;31.47
43217;BME280;60511;42.686;23.300;2023-05-08T08:29:53;94894.50;;;23.49;31.22
43217;BME280;60511;42.686;23.300;2023-05-08T08:31:53;94842.94;;;23.10;31.59
43217;BME280;60511;42.686;23.300;2023-05-08T08:33:53;94894.94;;;23.51;31.62
43217;BME280;60511;42.686;23.300;2023-05-08T08:35:54;94880.03;;;23.41;31.44
43217;BME280;60511;42.686;23.300;2023-05-08T08:37:57;94886.50;;;23.52;31.34
43217;BME280;60511;42.686;23.300;2023-05-08T08:39:59;94902.53;;;23.61;31.43
43217;BME280;60511;42.686;23.300;2023-05-08T08:42:01;94861.13;;;23.41;31.53
43217;BME280;60511;42.686;23.300;2023-05-08T08:44:01;94887.00;;;23.58;31.67
43217;BME280;60511;42.686;23.300;2023-05-08T08:46:10;94887.88;;;23.62;31.43
43217;BME280;60511;42.686;23.300;2023-05-08T08:48:11;94886.31;;;23.61;31.68
43217;BME280;60511;42.686;23.300;2023-05-08T08:50:12;94887.88;;;23.62;31.35
43217;BME280;60511;42.686;23.300;2023-05-08T08:52:50;94881.03;;;23.64;31.55
43217;BME280;60511;42.686;23.300;2023-05-08T08:54:55;94857.72;;;23.44;31.62
43217;BME280;60511;42.686;23.300;2023-05-08T08:57:00;94882.56;;;23.65;31.66
43217;BME280;60511;42.686;23.300;2023-05-08T08:59:01;94840.03;;;23.46;31.41
43217;BME280;60511;42.686;23.300;2023-05-08T09:01:03;94861.66;;;23.62;31.51
43217;BME280;60511;42.686;23.300;2023-05-08T09:03:04;94823.63;;;23.39;31.46
43217;BME280;60511;42.686;23.300;2023-05-08T09:05:07;94752.47;;;22.87;31.18
43217;BME280;60511;42.686;23.300;2023-05-08T09:07:10;94859.75;;;23.63;31.49
43217;BME280;60511;42.686;23.300;2023-05-08T09:09:11;94825.91;;;23.37;31.51
43217;BME280;60511;42.686;23.300;2023-05-08T09:11:12;94773.09;;;23.08;31.56
43217;BME280;60511;42.686;23.300;2023-05-08T09:13:12;94852.75;;;23.62;31.43
43217;BME280;60511;42.686;23.300;2023-05-08T09:15:13;94769.28;;;23.09;31.63
43217;BME280;60511;42.686;23.300;2023-05-08T09:17:13;94835.22;;;23.56;31.45
43217;BME280;60511;42.686;23.300;2023-05-08T09:19:13;94837.78;;;23.64;31.51
43217;BME280;60511;42.686;23.300;2023-05-08T09:21:17;94800.56;;;23.42;31.57
43217;BME280;60511;42.686;23.300;2023-05-08T09:23:17;94822.25;;;23.61;31.45
43217;BME280;60511;42.686;23.300;2023-05-08T09:25:18;94819.22;;;23.63;31.60
43217;BME280;60511;42.686;23.300;2023-05-08T09:27:23;94821.91;;;23.63;31.29
43217;BME280;60511;42.686;23.300;2023-05-08T09:29:24;94823.03;;;23.62;31.48
43217;BME280;60511;42.686;23.300;2023-05-08T09:31:36;94828.91;;;23.64;31.58
43217;BME280;60511;42.686;23.300;2023-05-08T09:33:42;94837.78;;;23.64;31.61
43217;BME280;60511;42.686;23.300;2023-05-08T09:35:43;94824.09;;;23.57;31.64
43217;BME280;60511;42.686;23.300;2023-05-08T09:37:43;94832.38;;;23.64;31.46
43217;BME280;60511;42.686;23.300;2023-05-08T09:39:45;94812.69;;;23.48;31.68
43217;BME280;60511;42.686;23.300;2023-05-08T09:42:03;94844.75;;;23.65;31.48
43217;BME280;60511;42.686;23.300;2023-05-08T09:44:05;94850.97;;;23.66;31.80
43217;BME280;60511;42.686;23.300;2023-05-08T09:46:22;94850.59;;;23.67;31.76
43217;BME280;60511;42.686;23.300;2023-05-08T09:48:38;94844.59;;;23.58;31.98
43217;BME280;60511;42.686;23.300;2023-05-08T09:50:38;94854.25;;;23.59;31.75
43217;BME280;60511;42.686;23.300;2023-05-08T09:52:45;94853.13;;;23.60;31.90
43217;BME280;60511;42.686;23.300;2023-05-08T09:54:48;94846.31;;;23.66;31.86
43217;BME280;60511;42.686;23.300;2023-05-08T09:56:55;94841.94;;;23.62;31.83
43217;BME280;60511;42.686;23.300;2023-05-08T09:58:56;94804.47;;;23.44;31.42
43217;BME280;60511;42.686;23.300;2023-05-08T10:00:56;94824.97;;;23.61;31.51
43217;BME280;60511;42.686;23.300;2023-05-08T10:03:01;94836.81;;;23.73;31.58
43217;BME280;60511;42.686;23.300;2023-05-08T10:05:04;94839.19;;;23.74;31.54
43217;BME280;60511;42.686;23.300;2023-05-08T10:07:32;94808.94;;;23.53;31.69
43217;BME280;60511;42.686;23.300;2023-05-08T10:09:33;94779.53;;;23.35;31.63
43217;BME280;60511;42.686;23.300;2023-05-08T10:11:33;94840.31;;;23.73;31.73
43217;BME280;60511;42.686;23.300;2023-05-08T10:13:34;94826.97;;;23.64;31.73
43217;BME280;60511;42.686;23.300;2023-05-08T10:15:37;94812.84;;;23.55;31.74
43217;BME280;60511;42.686;23.300;2023-05-08T10:17:43;94836.81;;;23.73;31.70
43217;BME280;60511;42.686;23.300;2023-05-08T10:19:47;94835.69;;;23.74;31.66
43217;BME280;60511;42.686;23.300;2023-05-08T10:21:51;94815.38;;;23.64;31.55
43217;BME280;60511;42.686;23.300;2023-05-08T10:23:52;94826.44;;;23.75;31.72
43217;BME280;60511;42.686;23.300;2023-05-08T10:26:01;94812.75;;;23.67;31.63
43217;BME280;60511;42.686;23.300;2023-05-08T10:28:27;94814.06;;;23.74;31.83
43217;BME280;60511;42.686;23.300;2023-05-08T10:30:29;94793.69;;;23.60;31.57
43217;BME280;60511;42.686;23.300;2023-05-08T10:32:37;94822.28;;;23.77;31.63
43217;BME280;60511;42.686;23.300;2023-05-08T10:34:40;94771.72;;;23.46;31.65
43217;BME280;60511;42.686;23.300;2023-05-08T10:36:41;94796.38;;;23.60;31.68
43217;BME280;60511;42.686;23.300;2023-05-08T10:38:42;94814.28;;;23.81;31.96
43217;BME280;60511;42.686;23.300;2023-05-08T10:40:42;94815.03;;;23.81;31.91
43217;BME280;60511;42.686;23.300;2023-05-08T10:42:44;94813.13;;;23.82;31.87
43217;BME280;60511;42.686;23.300;2023-05-08T10:44:44;94809.56;;;23.78;31.89
43217;BME280;60511;42.686;23.300;2023-05-08T10:46:53;94809.31;;;23.83;32.08
43217;BME280;60511;42.686;23.300;2023-05-08T10:49:01;94813.56;;;23.84;31.74
43217;BME280;60511;42.686;23.300;2023-05-08T10:51:36;94803.13;;;23.82;31.95
43217;BME280;60511;42.686;23.300;2023-05-08T10:54:01;94801.28;;;23.86;32.17
43217;BME280;60511;42.686;23.300;2023-05-08T10:56:04;94787.38;;;23.88;32.17
43217;BME280;60511;42.686;23.300;2023-05-08T10:58:09;94758.09;;;23.74;31.80
43217;BME280;60511;42.686;23.300;2023-05-08T11:00:10;94765.41;;;23.74;32.11
43217;BME280;60511;42.686;23.300;2023-05-08T11:02:10;94721.19;;;23.46;31.94
43217;BME280;60511;42.686;23.300;2023-05-08T11:04:21;94796.38;;;23.92;32.01
43217;BME280;60511;42.686;23.300;2023-05-08T11:06:45;94780.56;;;23.94;32.15